sensor_id;sensor_type;location;lat;lon;timestamp;temperature;humidity
6429;DHT22;3247;48.946;10.220;2023-03-01T00:00:39;-4.20;99.90
6429;DHT22;3247;48.946;10.220;2023-03-01T00:03:04;-4.60;99.90
6429;DHT22;3247;48.946;10.220;2023-03-01T00:05:30;-4.60;99.90
6429;DHT22;3247;48.946;10.220;2023-03-01T00:07:58;-4.80;99.90
6429;DHT22;3247;48.946;10.220;2023-03-01T00:10:25;-4.80;99.90
6429;DHT22;3247;48.946;10.220;2023-03-01T00:12:51;-4.80;99.90
6429;DHT22;3247;48.946;10.220;2023-03-01T00:15:17;-4.90;99.90
6429;DHT22;3247;48.946;10.220;2023-03-01T00:17:43;-4.90;99.90
6429;DHT22;3247;48.946;10.220;2023-03-01T00:20:09;-4.90;99.90
6429;DHT22;3247;48.946;10.220;2023-03-01T00:22:35;-4.90;99.90
6429;DHT22;3247;48.946;10.220;2023-03-01T00:25:02;-4.90;99.90
6429;DHT22;3247;48.946;10.220;2023-03-01T00:27:29;-4.20;99.90
6429;DHT22;3247;48.946;10.220;2023-03-01T00:29:55;-4.80;99.90
6429;DHT22;3247;48.946;10.220;2023-03-01T00:32:21;-4.30;99.90
6429;DHT22;3247;48.946;10.220;2023-03-01T00:34:46;-4.70;99.90
6429;DHT22;3247;48.946;10.220;2023-03-01T00:37:21;-4.60;99.90
6429;DHT22;3247;48.946;10.220;2023-03-01T00:39:49;-4.40;99.90
6429;DHT22;3247;48.946;10.220;2023-03-01T00:42:16;-4.20;99.90
6429;DHT22;3247;48.946;10.220;2023-03-01T00:44:41;-4.00;99.90
6429;DHT22;3247;48.946;10.220;2023-03-01T00:47:10;-3.80;99.90
6429;DHT22;3247;48.946;10.220;2023-03-01T00:49:36;-3.80;99.90
6429;DHT22;3247;48.946;10.220;2023-03-01T00:52:11;-4.50;99.90
6429;DHT22;3247;48.946;10.220;2023-03-01T00:54:39;-3.50;99.90
6429;DHT22;3247;48.946;10.220;2023-03-01T00:57:04;-3.30;99.90
6429;DHT22;3247;48.946;10.220;2023-03-01T00:59:30;-3.30;99.90
6429;DHT22;3247;48.946;10.220;2023-03-01T01:01:56;-2.90;99.90
6429;DHT22;3247;48.946;10.220;2023-03-01T01:04:23;-1.90;99.90
6429;DHT22;3247;48.946;10.220;2023-03-01T01:06:49;-3.10;99.90
6429;DHT22;3247;48.946;10.220;2023-03-01T01:09:16;-3.10;99.90
6429;DHT22;3247;48.946;10.220;2023-03-01T01:11:49;-2.20;99.90
6429;DHT22;3247;48.946;10.220;2023-03-01T01:14:16;-2.90;99.90
6429;DHT22;3247;48.946;10.220;2023-03-01T01:16:41;-2.30;99.90
6429;DHT22;3247;48.946;10.220;2023-03-01T01:19:07;-2.80;99.90
6429;DHT22;3247;48.946;10.220;2023-03-01T01:21:32;-2.70;99.90
6429;DHT22;3247;48.946;10.220;2023-03-01T01:23:59;-2.70;99.90
6429;DHT22;3247;48.946;10.220;2023-03-01T01:26:26;-2.60;99.90
6429;DHT22;3247;48.946;10.220;2023-03-01T01:28:53;-2.60;99.90
6429;DHT22;3247;48.946;10.220;2023-03-01T01:31:19;-1.80;99.90
6429;DHT22;3247;48.946;10.220;2023-03-01T01:33:45;-2.00;99.90
6429;DHT22;3247;48.946;10.220;2023-03-01T01:36:11;-2.40;99.90
6429;DHT22;3247;48.946;10.220;2023-03-01T01:38:37;-2.40;99.90
6429;DHT22;3247;48.946;10.220;2023-03-01T01:41:03;-2.30;99.90
6429;DHT22;3247;48.946;10.220;2023-03-01T01:43:35;-2.30;99.90
6429;DHT22;3247;48.946;10.220;2023-03-01T01:46:03;-2.30;99.90
6429;DHT22;3247;48.946;10.220;2023-03-01T01:48:36;-1.20;99.90
6429;DHT22;3247;48.946;10.220;2023-03-01T01:54:05;-2.10;99.90
6429;DHT22;3247;48.946;10.220;2023-03-01T01:56:32;-2.00;99.90
6429;DHT22;3247;48.946;10.220;2023-03-01T01:58:58;-1.90;99.90
6429;DHT22;3247;48.946;10.220;2023-03-01T02:01:24;-2.00;99.90
6429;DHT22;3247;48.946;10.220;2023-03-01T02:03:50;-1.90;99.90
6429;DHT22;3247;48.946;10.220;2023-03-01T02:06:19;-1.90;99.90
6429;DHT22;3247;48.946;10.220;2023-03-01T02:08:47;-1.90;99.90
6429;DHT22;3247;48.946;10.220;2023-03-01T02:11:14;-1.90;99.90
6429;DHT22;3247;48.946;10.220;2023-03-01T02:13:41;-1.90;99.90
6429;DHT22;3247;48.946;10.220;2023-03-01T02:16:11;-1.90;99.90
6429;DHT22;3247;48.946;10.220;2023-03-01T02:18:37;-1.80;99.90
6429;DHT22;3247;48.946;10.220;2023-03-01T02:21:17;-1.70;99.90
6429;DHT22;3247;48.946;10.220;2023-03-01T02:23:45;-1.80;99.90
6429;DHT22;3247;48.946;10.220;2023-03-01T02:26:18;-1.70;99.90
6429;DHT22;3247;48.946;10.220;2023-03-01T02:28:45;-1.70;99.90
6429;DHT22;3247;48.946;10.220;2023-03-01T02:31:14;-1.70;99.90
6429;DHT22;3247;48.946;10.220;2023-03-01T02:33:59;-1.70;99.90
6429;DHT22;3247;48.946;10.220;2023-03-01T02:36:26;-1.70;99.90
6429;DHT22;3247;48.946;10.220;2023-03-01T02:38:54;-1.10;99.90
6429;DHT22;3247;48.946;10.220;2023-03-01T02:41:20;-1.30;99.90
6429;DHT22;3247;48.946;10.220;2023-03-01T02:43:47;-1.70;99.90
6429;DHT22;3247;48.946;10.220;2023-03-01T02:46:16;-1.70;99.90
6429;DHT22;3247;48.946;10.220;2023-03-01T02:48:44;-1.80;99.90
6429;DHT22;3247;48.946;10.220;2023-03-01T02:54:10;-0.40;99.90
6429;DHT22;3247;48.946;10.220;2023-03-01T02:56:37;-1.70;99.90
6429;DHT22;3247;48.946;10.220;2023-03-01T02:59:02;-1.60;99.90
6429;DHT22;3247;48.946;10.220;2023-03-01T03:01:29;-1.60;99.90
6429;DHT22;3247;48.946;10.220;2023-03-01T03:04:09;-1.60;99.90
6429;DHT22;3247;48.946;10.220;2023-03-01T03:06:35;-1.60;99.90
6429;DHT22;3247;48.946;10.220;2023-03-01T03:09:00;-1.70;99.90
6429;DHT22;3247;48.946;10.220;2023-03-01T03:11:26;-1.20;99.90
6429;DHT22;3247;48.946;10.220;2023-03-01T03:13:52;-1.70;99.90
6429;DHT22;3247;48.946;10.220;2023-03-01T03:16:18;-1.70;99.90
6429;DHT22;3247;48.946;10.220;2023-03-01T03:18:44;-1.70;99.90
6429;DHT22;3247;48.946;10.220;2023-03-01T03:21:22;-1.80;99.90
6429;DHT22;3247;48.946;10.220;2023-03-01T03:23:47;-1.80;99.90
6429;DHT22;3247;48.946;10.220;2023-03-01T03:26:13;-1.70;99.90
6429;DHT22;3247;48.946;10.220;2023-03-01T03:28:40;-1.70;99.90
6429;DHT22;3247;48.946;10.220;2023-03-01T03:31:06;-1.60;99.90
6429;DHT22;3247;48.946;10.220;2023-03-01T03:33:32;-1.60;99.90
6429;DHT22;3247;48.946;10.220;2023-03-01T03:35:57;-1.60;99.90
6429;DHT22;3247;48.946;10.220;2023-03-01T03:38:25;-1.60;99.90
6429;DHT22;3247;48.946;10.220;2023-03-01T03:40:51;-1.70;99.90
6429;DHT22;3247;48.946;10.220;2023-03-01T03:43:18;-1.60;99.90
6429;DHT22;3247;48.946;10.220;2023-03-01T03:45:45;-1.60;99.90
6429;DHT22;3247;48.946;10.220;2023-03-01T03:48:12;-1.60;99.90
6429;DHT22;3247;48.946;10.220;2023-03-01T03:50:41;-1.60;99.90
6429;DHT22;3247;48.946;10.220;2023-03-01T03:53:09;-1.60;99.90
6429;DHT22;3247;48.946;10.220;2023-03-01T03:55:36;-1.70;99.90
6429;DHT22;3247;48.946;10.220;2023-03-01T03:58:05;-1.70;99.90
6429;DHT22;3247;48.946;10.220;2023-03-01T04:03:01;-1.70;99.90
6429;DHT22;3247;48.946;10.220;2023-03-01T04:05:27;-1.70;99.90
6429;DHT22;3247;48.946;10.220;2023-03-01T04:07:53;-2.70;99.90
6429;DHT22;3247;48.946;10.220;2023-03-01T04:10:26;-1.60;99.90
6429;DHT22;3247;48.946;10.220;2023-03-01T04:12:52;-1.70;99.90
6429;DHT22;3247;48.946;10.220;2023-03-01T04:15:17;-1.60;99.90
6429;DHT22;3247;48.946;10.220;2023-03-01T04:17:44;-1.60;99.90
6429;DHT22;3247;48.946;10.220;2023-03-01T04:20:13;-1.60;99.90
6429;DHT22;3247;48.946;10.220;2023-03-01T04:22:59;-1.60;99.90
6429;DHT22;3247;48.946;10.220;2023-03-01T04:25:42;-1.70;99.90
6429;DHT22;3247;48.946;10.220;2023-03-01T04:28:11;-1.70;99.90
6429;DHT22;3247;48.946;10.220;2023-03-01T04:30:38;-1.70;99.90
6429;DHT22;3247;48.946;10.220;2023-03-01T04:33:04;-1.70;99.90
6429;DHT22;3247;48.946;10.220;2023-03-01T04:35:31;-1.80;99.90
6429;DHT22;3247;48.946;10.220;2023-03-01T04:37:58;-1.70;99.90
6429;DHT22;3247;48.946;10.220;2023-03-01T04:40:25;-1.70;99.90
6429;DHT22;3247;48.946;10.220;2023-03-01T04:42:52;-1.80;99.90
6429;DHT22;3247;48.946;10.220;2023-03-01T04:45:19;-1.70;99.90
6429;DHT22;3247;48.946;10.220;2023-03-01T04:47:45;-1.80;99.90
6429;DHT22;3247;48.946;10.220;2023-03-01T04:50:12;-1.80;99.90
6429;DHT22;3247;48.946;10.220;2023-03-01T04:55:34;-1.80;99.90
6429;DHT22;3247;48.946;10.220;2023-03-01T04:58:00;-1.90;99.90
6429;DHT22;3247;48.946;10.220;2023-03-01T05:00:27;-1.90;99.90
6429;DHT22;3247;48.946;10.220;2023-03-01T05:02:53;-2.00;99.90
6429;DHT22;3247;48.946;10.220;2023-03-01T05:05:32;-2.00;99.90
6429;DHT22;3247;48.946;10.220;2023-03-01T05:07:59;-2.10;99.90
6429;DHT22;3247;48.946;10.220;2023-03-01T05:10:26;-2.20;99.90
6429;DHT22;3247;48.946;10.220;2023-03-01T05:12:54;-2.20;99.90
6429;DHT22;3247;48.946;10.220;2023-03-01T05:15:21;-2.30;99.90
6429;DHT22;3247;48.946;10.220;2023-03-01T05:17:49;-2.40;99.90
6429;DHT22;3247;48.946;10.220;2023-03-01T05:20:14;-2.40;99.90
6429;DHT22;3247;48.946;10.220;2023-03-01T05:25:43;-2.70;99.90
6429;DHT22;3247;48.946;10.220;2023-03-01T05:28:41;-2.70;99.90
6429;DHT22;3247;48.946;10.220;2023-03-01T05:31:07;-2.80;99.90
6429;DHT22;3247;48.946;10.220;2023-03-01T05:33:38;-2.80;99.90
6429;DHT22;3247;48.946;10.220;2023-03-01T05:36:04;-2.90;99.90
6429;DHT22;3247;48.946;10.220;2023-03-01T05:38:30;-3.10;99.90
6429;DHT22;3247;48.946;10.220;2023-03-01T05:40:57;-3.10;99.90
6429;DHT22;3247;48.946;10.220;2023-03-01T05:43:22;-3.20;99.90
6429;DHT22;3247;48.946;10.220;2023-03-01T05:45:48;-3.20;99.90
6429;DHT22;3247;48.946;10.220;2023-03-01T05:48:15;-2.10;99.90
6429;DHT22;3247;48.946;10.220;2023-03-01T05:50:47;-3.30;99.90
6429;DHT22;3247;48.946;10.220;2023-03-01T05:53:14;-3.40;99.90
6429;DHT22;3247;48.946;10.220;2023-03-01T05:55:40;-3.40;99.90
6429;DHT22;3247;48.946;10.220;2023-03-01T05:58:16;-2.90;99.90
6429;DHT22;3247;48.946;10.220;2023-03-01T06:00:43;-3.40;99.90
6429;DHT22;3247;48.946;10.220;2023-03-01T06:03:10;-3.40;99.90
6429;DHT22;3247;48.946;10.220;2023-03-01T06:05:37;-3.40;99.90
6429;DHT22;3247;48.946;10.220;2023-03-01T06:08:04;-3.50;99.90
6429;DHT22;3247;48.946;10.220;2023-03-01T06:10:35;-3.40;99.90
6429;DHT22;3247;48.946;10.220;2023-03-01T06:13:01;-3.60;99.90
6429;DHT22;3247;48.946;10.220;2023-03-01T06:15:26;-3.50;99.90
6429;DHT22;3247;48.946;10.220;2023-03-01T06:17:54;-3.50;99.90
6429;DHT22;3247;48.946;10.220;2023-03-01T06:23:22;-3.60;99.90
6429;DHT22;3247;48.946;10.220;2023-03-01T06:25:47;-3.50;99.90
6429;DHT22;3247;48.946;10.220;2023-03-01T06:28:16;-3.60;99.90
6429;DHT22;3247;48.946;10.220;2023-03-01T06:30:41;-3.50;99.90
6429;DHT22;3247;48.946;10.220;2023-03-01T06:33:07;-2.30;99.90
6429;DHT22;3247;48.946;10.220;2023-03-01T06:35:32;-3.50;99.90
6429;DHT22;3247;48.946;10.220;2023-03-01T06:37:58;-3.10;99.90
6429;DHT22;3247;48.946;10.220;2023-03-01T06:40:24;-3.30;99.90
6429;DHT22;3247;48.946;10.220;2023-03-01T06:42:51;-3.20;99.90
6429;DHT22;3247;48.946;10.220;2023-03-01T06:45:18;-3.20;99.90
6429;DHT22;3247;48.946;10.220;2023-03-01T06:47:45;-4.50;99.90
6429;DHT22;3247;48.946;10.220;2023-03-01T06:50:11;-2.90;99.90
6429;DHT22;3247;48.946;10.220;2023-03-01T06:52:39;-2.80;99.90
6429;DHT22;3247;48.946;10.220;2023-03-01T06:55:05;-2.70;99.90
6429;DHT22;3247;48.946;10.220;2023-03-01T06:57:30;-2.70;99.90
6429;DHT22;3247;48.946;10.220;2023-03-01T06:59:57;-1.30;99.90
6429;DHT22;3247;48.946;10.220;2023-03-01T07:02:23;-2.50;99.90
6429;DHT22;3247;48.946;10.220;2023-03-01T07:04:49;-2.50;99.90
6429;DHT22;3247;48.946;10.220;2023-03-01T07:07:14;-2.40;99.90
6429;DHT22;3247;48.946;10.220;2023-03-01T07:09:40;-1.80;99.90
6429;DHT22;3247;48.946;10.220;2023-03-01T07:12:16;-2.20;99.90
6429;DHT22;3247;48.946;10.220;2023-03-01T07:14:49;-2.00;99.90
6429;DHT22;3247;48.946;10.220;2023-03-01T07:17:15;-2.00;99.90
6429;DHT22;3247;48.946;10.220;2023-03-01T07:19:41;-0.80;99.90
6429;DHT22;3247;48.946;10.220;2023-03-01T07:22:06;-1.80;99.90
6429;DHT22;3247;48.946;10.220;2023-03-01T07:24:34;-1.70;99.90
6429;DHT22;3247;48.946;10.220;2023-03-01T07:26:59;-1.40;99.90
6429;DHT22;3247;48.946;10.220;2023-03-01T07:29:25;-1.30;99.90
6429;DHT22;3247;48.946;10.220;2023-03-01T07:31:50;-1.10;99.90
6429;DHT22;3247;48.946;10.220;2023-03-01T07:34:15;-1.00;99.90
6429;DHT22;3247;48.946;10.220;2023-03-01T07:36:41;-0.70;99.90
6429;DHT22;3247;48.946;10.220;2023-03-01T07:39:10;-1.70;99.90
6429;DHT22;3247;48.946;10.220;2023-03-01T07:41:35;-0.30;99.90
6429;DHT22;3247;48.946;10.220;2023-03-01T07:44:01;-0.10;99.90
6429;DHT22;3247;48.946;10.220;2023-03-01T07:46:26;1.50;99.90
6429;DHT22;3247;48.946;10.220;2023-03-01T07:48:52;1.80;99.90
6429;DHT22;3247;48.946;10.220;2023-03-01T07:54:21;1.50;99.90
6429;DHT22;3247;48.946;10.220;2023-03-01T07:56:46;3.10;99.90
6429;DHT22;3247;48.946;10.220;2023-03-01T07:59:12;2.10;99.90
6429;DHT22;3247;48.946;10.220;2023-03-01T08:01:37;2.10;99.90
6429;DHT22;3247;48.946;10.220;2023-03-01T08:04:03;2.40;99.90
6429;DHT22;3247;48.946;10.220;2023-03-01T08:06:33;2.80;99.90
6429;DHT22;3247;48.946;10.220;2023-03-01T08:08:58;3.30;99.90
6429;DHT22;3247;48.946;10.220;2023-03-01T08:11:24;3.40;99.90
6429;DHT22;3247;48.946;10.220;2023-03-01T08:13:51;3.70;99.90
6429;DHT22;3247;48.946;10.220;2023-03-01T08:16:17;4.10;99.90
6429;DHT22;3247;48.946;10.220;2023-03-01T08:18:42;4.60;99.90
6429;DHT22;3247;48.946;10.220;2023-03-01T08:24:11;5.20;99.90
6429;DHT22;3247;48.946;10.220;2023-03-01T08:26:37;6.60;99.90
6429;DHT22;3247;48.946;10.220;2023-03-01T08:29:02;6.80;99.90
6429;DHT22;3247;48.946;10.220;2023-03-01T08:31:34;6.60;99.90
6429;DHT22;3247;48.946;10.220;2023-03-01T08:34:04;5.60;99.90
6429;DHT22;3247;48.946;10.220;2023-03-01T08:36:33;5.70;99.90
6429;DHT22;3247;48.946;10.220;2023-03-01T08:39:00;5.30;99.90
6429;DHT22;3247;48.946;10.220;2023-03-01T08:41:25;5.40;99.90
6429;DHT22;3247;48.946;10.220;2023-03-01T08:43:51;6.50;99.90
6429;DHT22;3247;48.946;10.220;2023-03-01T08:46:17;7.60;99.90
6429;DHT22;3247;48.946;10.220;2023-03-01T08:48:44;7.90;99.90
6429;DHT22;3247;48.946;10.220;2023-03-01T08:51:16;6.30;99.90
6429;DHT22;3247;48.946;10.220;2023-03-01T08:53:42;6.00;99.90
6429;DHT22;3247;48.946;10.220;2023-03-01T08:56:08;6.20;99.90
6429;DHT22;3247;48.946;10.220;2023-03-01T08:58:34;7.30;99.90
6429;DHT22;3247;48.946;10.220;2023-03-01T09:01:04;7.90;99.90
6429;DHT22;3247;48.946;10.220;2023-03-01T09:03:31;7.60;99.90
6429;DHT22;3247;48.946;10.220;2023-03-01T09:05:59;6.30;99.90
6429;DHT22;3247;48.946;10.220;2023-03-01T09:08:26;6.40;99.90
6429;DHT22;3247;48.946;10.220;2023-03-01T09:10:52;6.90;99.90
6429;DHT22;3247;48.946;10.220;2023-03-01T09:13:18;7.30;99.90
6429;DHT22;3247;48.946;10.220;2023-03-01T09:15:43;8.70;99.90
6429;DHT22;3247;48.946;10.220;2023-03-01T09:18:09;8.40;99.90
6429;DHT22;3247;48.946;10.220;2023-03-01T09:20:34;8.50;99.90
6429;DHT22;3247;48.946;10.220;2023-03-01T09:23:00;7.50;99.90
6429;DHT22;3247;48.946;10.220;2023-03-01T09:25:25;6.40;99.90
6429;DHT22;3247;48.946;10.220;2023-03-01T09:27:51;7.50;99.90
6429;DHT22;3247;48.946;10.220;2023-03-01T09:30:17;5.50;99.90
6429;DHT22;3247;48.946;10.220;2023-03-01T09:32:42;4.80;99.90
6429;DHT22;3247;48.946;10.220;2023-03-01T09:35:10;4.40;99.90
6429;DHT22;3247;48.946;10.220;2023-03-01T09:37:35;4.10;99.90
6429;DHT22;3247;48.946;10.220;2023-03-01T09:40:04;4.40;99.90
6429;DHT22;3247;48.946;10.220;2023-03-01T09:42:31;3.50;99.90
6429;DHT22;3247;48.946;10.220;2023-03-01T09:47:24;3.40;99.90
6429;DHT22;3247;48.946;10.220;2023-03-01T09:50:05;3.40;99.90
6429;DHT22;3247;48.946;10.220;2023-03-01T09:55:07;3.30;99.90
6429;DHT22;3247;48.946;10.220;2023-03-01T09:57:37;3.30;99.90
6429;DHT22;3247;48.946;10.220;2023-03-01T10:02:52;3.40;99.90
6429;DHT22;3247;48.946;10.220;2023-03-01T10:05:30;3.30;99.90
6429;DHT22;3247;48.946;10.220;2023-03-01T10:08:13;3.40;99.90
6429;DHT22;3247;48.946;10.220;2023-03-01T10:10:44;3.20;99.90
6429;DHT22;3247;48.946;10.220;2023-03-01T10:15:56;1.50;99.90
6429;DHT22;3247;48.946;10.220;2023-03-01T10:18:27;4.50;99.90
6429;DHT22;3247;48.946;10.220;2023-03-01T10:23:59;3.20;99.90
6429;DHT22;3247;48.946;10.220;2023-03-01T10:29:11;3.60;99.90
6429;DHT22;3247;48.946;10.220;2023-03-01T10:31:47;3.80;99.90
6429;DHT22;3247;48.946;10.220;2023-03-01T10:34:18;3.80;99.90
6429;DHT22;3247;48.946;10.220;2023-03-01T10:36:45;3.70;99.90
6429;DHT22;3247;48.946;10.220;2023-03-01T10:39:13;4.40;99.90
6429;DHT22;3247;48.946;10.220;2023-03-01T10:41:59;3.40;99.90
6429;DHT22;3247;48.946;10.220;2023-03-01T10:44:38;3.40;99.90
6429;DHT22;3247;48.946;10.220;2023-03-01T10:47:04;3.60;99.90
6429;DHT22;3247;48.946;10.220;2023-03-01T10:49:29;3.80;99.90
6429;DHT22;3247;48.946;10.220;2023-03-01T10:55:03;3.70;99.90
6429;DHT22;3247;48.946;10.220;2023-03-01T10:57:31;3.50;99.90
6429;DHT22;3247;48.946;10.220;2023-03-01T11:00:00;3.50;99.90
6429;DHT22;3247;48.946;10.220;2023-03-01T11:02:30;4.70;99.90
6429;DHT22;3247;48.946;10.220;2023-03-01T11:07:21;3.90;99.90
6429;DHT22;3247;48.946;10.220;2023-03-01T11:09:46;4.10;99.90
6429;DHT22;3247;48.946;10.220;2023-03-01T11:12:15;5.10;99.90
6429;DHT22;3247;48.946;10.220;2023-03-01T11:14:48;4.30;99.90
6429;DHT22;3247;48.946;10.220;2023-03-01T11:17:16;4.10;99.90
6429;DHT22;3247;48.946;10.220;2023-03-01T11:19:42;5.00;99.90
6429;DHT22;3247;48.946;10.220;2023-03-01T11:25:04;4.30;99.90
6429;DHT22;3247;48.946;10.220;2023-03-01T11:27:34;4.50;99.90
6429;DHT22;3247;48.946;10.220;2023-03-01T11:30:06;4.60;99.90
6429;DHT22;3247;48.946;10.220;2023-03-01T11:32:38;4.70;99.90
6429;DHT22;3247;48.946;10.220;2023-03-01T11:35:10;4.50;99.90
6429;DHT22;3247;48.946;10.220;2023-03-01T11:37:41;4.40;99.90
6429;DHT22;3247;48.946;10.220;2023-03-01T11:40:16;5.60;99.90
6429;DHT22;3247;48.946;10.220;2023-03-01T11:42:44;3.70;99.90
6429;DHT22;3247;48.946;10.220;2023-03-01T11:45:11;4.60;99.90
6429;DHT22;3247;48.946;10.220;2023-03-01T11:47:50;5.40;99.90
6429;DHT22;3247;48.946;10.220;2023-03-01T11:58:14;4.60;99.90
6429;DHT22;3247;48.946;10.220;2023-03-01T12:03:25;4.70;99.90
6429;DHT22;3247;48.946;10.220;2023-03-01T12:11:33;4.90;99.90
6429;DHT22;3247;48.946;10.220;2023-03-01T12:18:45;4.70;99.90
6429;DHT22;3247;48.946;10.220;2023-03-01T12:39:48;5.20;99.90
6429;DHT22;3247;48.946;10.220;2023-03-01T12:50:17;5.50;99.90
6429;DHT22;3247;48.946;10.220;2023-03-01T12:56:10;5.40;99.90
6429;DHT22;3247;48.946;10.220;2023-03-01T12:58:39;6.10;99.90
6429;DHT22;3247;48.946;10.220;2023-03-01T13:01:27;6.70;99.90
6429;DHT22;3247;48.946;10.220;2023-03-01T13:04:01;5.40;99.90
6429;DHT22;3247;48.946;10.220;2023-03-01T13:07:04;5.40;99.90
6429;DHT22;3247;48.946;10.220;2023-03-01T13:09:24;5.60;99.90
6429;DHT22;3247;48.946;10.220;2023-03-01T13:11:52;7.10;99.90
6429;DHT22;3247;48.946;10.220;2023-03-01T13:16:48;5.70;99.90
6429;DHT22;3247;48.946;10.220;2023-03-01T13:19:18;4.60;99.90
6429;DHT22;3247;48.946;10.220;2023-03-01T13:21:45;5.80;99.90
6429;DHT22;3247;48.946;10.220;2023-03-01T13:24:23;5.80;99.90
6429;DHT22;3247;48.946;10.220;2023-03-01T13:29:46;5.70;99.90
6429;DHT22;3247;48.946;10.220;2023-03-01T13:32:19;5.80;99.90
6429;DHT22;3247;48.946;10.220;2023-03-01T13:34:46;5.80;99.90
6429;DHT22;3247;48.946;10.220;2023-03-01T13:37:18;7.20;99.90
6429;DHT22;3247;48.946;10.220;2023-03-01T13:39:44;5.90;99.90
6429;DHT22;3247;48.946;10.220;2023-03-01T13:44:53;5.70;99.90
6429;DHT22;3247;48.946;10.220;2023-03-01T13:47:19;6.20;99.90
6429;DHT22;3247;48.946;10.220;2023-03-01T13:49:59;7.60;99.90
6429;DHT22;3247;48.946;10.220;2023-03-01T13:52:32;5.80;99.90
6429;DHT22;3247;48.946;10.220;2023-03-01T13:54:59;5.20;99.90
6429;DHT22;3247;48.946;10.220;2023-03-01T13:57:29;6.00;99.90
6429;DHT22;3247;48.946;10.220;2023-03-01T13:59:57;7.10;99.90
6429;DHT22;3247;48.946;10.220;2023-03-01T14:02:22;6.10;99.90
6429;DHT22;3247;48.946;10.220;2023-03-01T14:04:58;6.10;99.90
6429;DHT22;3247;48.946;10.220;2023-03-01T14:07:24;6.10;99.90
6429;DHT22;3247;48.946;10.220;2023-03-01T14:09:55;7.80;99.90
6429;DHT22;3247;48.946;10.220;2023-03-01T14:12:24;6.30;99.90
6429;DHT22;3247;48.946;10.220;2023-03-01T14:15:10;5.30;99.90
6429;DHT22;3247;48.946;10.220;2023-03-01T14:23:48;6.10;99.90
6429;DHT22;3247;48.946;10.220;2023-03-01T14:26:13;6.80;99.90
6429;DHT22;3247;48.946;10.220;2023-03-01T14:28:45;6.70;99.90
6429;DHT22;3247;48.946;10.220;2023-03-01T14:31:32;6.40;99.90
6429;DHT22;3247;48.946;10.220;2023-03-01T14:33:56;6.40;99.90
6429;DHT22;3247;48.946;10.220;2023-03-01T14:36:26;7.90;99.90
6429;DHT22;3247;48.946;10.220;2023-03-01T14:38:52;6.30;99.90
6429;DHT22;3247;48.946;10.220;2023-03-01T14:41:21;6.30;99.90
6429;DHT22;3247;48.946;10.220;2023-03-01T14:43:51;6.30;99.90
6429;DHT22;3247;48.946;10.220;2023-03-01T14:46:21;7.30;99.90
6429;DHT22;3247;48.946;10.220;2023-03-01T14:48:53;6.40;99.90
6429;DHT22;3247;48.946;10.220;2023-03-01T14:56:48;6.20;99.90
6429;DHT22;3247;48.946;10.220;2023-03-01T14:59:15;6.10;99.90
6429;DHT22;3247;48.946;10.220;2023-03-01T15:01:41;7.40;99.90
6429;DHT22;3247;48.946;10.220;2023-03-01T15:04:08;6.40;99.90
6429;DHT22;3247;48.946;10.220;2023-03-01T15:06:36;7.30;99.90
6429;DHT22;3247;48.946;10.220;2023-03-01T15:09:02;6.20;99.90
6429;DHT22;3247;48.946;10.220;2023-03-01T15:11:30;6.20;99.90
6429;DHT22;3247;48.946;10.220;2023-03-01T15:13:55;6.80;99.90
6429;DHT22;3247;48.946;10.220;2023-03-01T15:16:22;6.90;99.90
6429;DHT22;3247;48.946;10.220;2023-03-01T15:18:49;6.30;99.90
6429;DHT22;3247;48.946;10.220;2023-03-01T15:27:23;6.20;99.90
6429;DHT22;3247;48.946;10.220;2023-03-01T15:29:50;6.20;99.90
6429;DHT22;3247;48.946;10.220;2023-03-01T15:32:31;7.40;99.90
6429;DHT22;3247;48.946;10.220;2023-03-01T15:35:00;6.10;99.90
6429;DHT22;3247;48.946;10.220;2023-03-01T15:40:23;6.20;99.90
6429;DHT22;3247;48.946;10.220;2023-03-01T15:42:59;6.10;99.90
6429;DHT22;3247;48.946;10.220;2023-03-01T15:45:27;7.20;99.90
6429;DHT22;3247;48.946;10.220;2023-03-01T15:47:54;6.10;99.90
6429;DHT22;3247;48.946;10.220;2023-03-01T15:50:41;6.00;99.90
6429;DHT22;3247;48.946;10.220;2023-03-01T15:53:12;6.00;99.90
6429;DHT22;3247;48.946;10.220;2023-03-01T15:55:39;5.90;99.90
6429;DHT22;3247;48.946;10.220;2023-03-01T15:58:12;5.90;99.90
6429;DHT22;3247;48.946;10.220;2023-03-01T16:00:38;5.90;99.90
6429;DHT22;3247;48.946;10.220;2023-03-01T16:03:04;5.20;99.90
6429;DHT22;3247;48.946;10.220;2023-03-01T16:05:31;7.50;99.90
6429;DHT22;3247;48.946;10.220;2023-03-01T16:07:57;5.80;99.90
6429;DHT22;3247;48.946;10.220;2023-03-01T16:10:23;5.80;99.90
6429;DHT22;3247;48.946;10.220;2023-03-01T16:12:49;6.20;99.90
6429;DHT22;3247;48.946;10.220;2023-03-01T16:15:18;6.90;99.90
6429;DHT22;3247;48.946;10.220;2023-03-01T16:17:44;6.20;99.90
6429;DHT22;3247;48.946;10.220;2023-03-01T16:20:09;6.90;99.90
6429;DHT22;3247;48.946;10.220;2023-03-01T16:25:23;5.40;99.90
6429;DHT22;3247;48.946;10.220;2023-03-01T16:27:49;6.70;99.90
6429;DHT22;3247;48.946;10.220;2023-03-01T16:30:15;6.30;99.90
6429;DHT22;3247;48.946;10.220;2023-03-01T16:32:42;5.30;99.90
6429;DHT22;3247;48.946;10.220;2023-03-01T16:35:08;5.20;99.90
6429;DHT22;3247;48.946;10.220;2023-03-01T16:37:34;5.10;99.90
6429;DHT22;3247;48.946;10.220;2023-03-01T16:40:00;5.60;99.90
6429;DHT22;3247;48.946;10.220;2023-03-01T16:42:25;5.10;99.90
6429;DHT22;3247;48.946;10.220;2023-03-01T16:44:55;5.50;99.90
6429;DHT22;3247;48.946;10.220;2023-03-01T16:47:20;4.90;99.90
6429;DHT22;3247;48.946;10.220;2023-03-01T16:49:46;4.70;99.90
6429;DHT22;3247;48.946;10.220;2023-03-01T16:52:12;4.70;99.90
6429;DHT22;3247;48.946;10.220;2023-03-01T16:54:37;4.10;99.90
6429;DHT22;3247;48.946;10.220;2023-03-01T16:57:03;4.80;99.90
6429;DHT22;3247;48.946;10.220;2023-03-01T16:59:29;5.50;99.90
6429;DHT22;3247;48.946;10.220;2023-03-01T17:01:54;4.10;99.90
6429;DHT22;3247;48.946;10.220;2023-03-01T17:04:20;4.20;99.90
6429;DHT22;3247;48.946;10.220;2023-03-01T17:06:45;5.50;99.90
6429;DHT22;3247;48.946;10.220;2023-03-01T17:09:12;4.20;99.90
6429;DHT22;3247;48.946;10.220;2023-03-01T17:11:37;3.90;99.90
6429;DHT22;3247;48.946;10.220;2023-03-01T17:14:03;4.00;99.90
6429;DHT22;3247;48.946;10.220;2023-03-01T17:16:28;3.90;99.90
6429;DHT22;3247;48.946;10.220;2023-03-01T17:18:54;3.70;99.90
6429;DHT22;3247;48.946;10.220;2023-03-01T17:21:19;3.60;99.90
6429;DHT22;3247;48.946;10.220;2023-03-01T17:23:45;3.40;99.90
6429;DHT22;3247;48.946;10.220;2023-03-01T17:26:11;3.40;99.90
6429;DHT22;3247;48.946;10.220;2023-03-01T17:28:37;3.30;99.90
6429;DHT22;3247;48.946;10.220;2023-03-01T17:31:03;3.30;99.90
6429;DHT22;3247;48.946;10.220;2023-03-01T17:33:29;3.20;99.90
6429;DHT22;3247;48.946;10.220;2023-03-01T17:35:55;3.00;99.90
6429;DHT22;3247;48.946;10.220;2023-03-01T17:38:20;3.40;99.90
6429;DHT22;3247;48.946;10.220;2023-03-01T17:40:46;2.70;99.90
6429;DHT22;3247;48.946;10.220;2023-03-01T17:43:12;2.70;99.90
6429;DHT22;3247;48.946;10.220;2023-03-01T17:45:38;2.60;99.90
6429;DHT22;3247;48.946;10.220;2023-03-01T17:48:04;2.60;99.90
6429;DHT22;3247;48.946;10.220;2023-03-01T17:50:30;2.60;99.90
6429;DHT22;3247;48.946;10.220;2023-03-01T17:52:56;3.60;99.90
6429;DHT22;3247;48.946;10.220;2023-03-01T17:55:22;2.60;99.90
6429;DHT22;3247;48.946;10.220;2023-03-01T17:57:48;2.80;99.90
6429;DHT22;3247;48.946;10.220;2023-03-01T18:00:14;2.60;99.90
6429;DHT22;3247;48.946;10.220;2023-03-01T18:02:41;2.50;99.90
6429;DHT22;3247;48.946;10.220;2023-03-01T18:05:09;4.10;99.90
6429;DHT22;3247;48.946;10.220;2023-03-01T18:07:35;2.30;99.90
6429;DHT22;3247;48.946;10.220;2023-03-01T18:10:00;3.60;99.90